Time;durP1;ratioP1;P1;durP2;ratioP2;P2;SDS_P1;SDS_P2;PMS_P1;PMS_P2;Temp;Humidity;BMP_temperature;BMP_pressure;BME280_temperature;BME280_humidity;BME280_pressure;Samples;Min_cycle;Max_cycle;Signal;HPM_P1;HPM_P2
2023/04/09 00:00:31;;;;;;;;;;;;;;;29.84;22.60;101321.00;5085430;28;1190;-29
2023/04/09 00:02:57;;;;;;;;;;;;;;;29.67;22.92;101324.78;5098949;28;1894;-32
2023/04/09 00:05:22;;;;;;;;;;;;;;;30.00;22.55;101325.38;5098507;28;1108;-31
2023/04/09 00:07:48;;;;;;;;;;;;;;;30.12;22.42;101325.75;5099223;28;1291;-30
2023/04/09 00:10:13;;;;;;;;;;;;;;;30.51;21.97;101334.59;5098930;28;1034;-31
2023/04/09 00:12:39;;;;;;;;;;;;;;;29.77;22.60;101329.06;5098435;28;1213;-29
2023/04/09 00:15:05;;;;;;;;;;;;;;;29.49;23.34;101326.97;5098251;28;1086;-32
2023/04/09 00:17:30;;;;;;;;;;;;;;;29.36;23.48;101325.75;5098704;28;1043;-32
2023/04/09 00:19:56;;;;;;;;;;;;;;;29.42;23.37;101322.28;5098478;28;1117;-29
2023/04/09 00:22:21;;;;;;;;;;;;;;;29.87;22.86;101326.06;5098788;28;1983;-31
2023/04/09 00:24:47;;;;;;;;;;;;;;;30.06;22.61;101328.19;5098806;28;1074;-30
2023/04/09 00:27:12;;;;;;;;;;;;;;;30.21;22.20;101326.53;5098342;28;901;-31
2023/04/09 00:29:38;;;;;;;;;;;;;;;29.77;22.85;101329.91;5098179;28;1058;-33
2023/04/09 00:32:04;;;;;;;;;;;;;;;29.70;23.02;101327.09;5098864;28;1123;-31
2023/04/09 00:34:30;;;;;;;;;;;;;;;30.05;22.66;101323.81;5098616;28;1106;-29
2023/04/09 00:36:55;;;;;;;;;;;;;;;30.34;22.37;101325.84;5098084;28;1042;-29
2023/04/09 00:39:21;;;;;;;;;;;;;;;30.42;22.21;101321.13;5098317;28;1062;-32
2023/04/09 00:41:46;;;;;;;;;;;;;;;29.80;22.90;101328.69;5098393;28;1978;-29
2023/04/09 00:44:12;;;;;;;;;;;;;;;29.45;23.46;101321.91;5098085;28;1050;-30
2023/04/09 00:46:37;;;;;;;;;;;;;;;29.42;23.38;101325.00;5098203;28;1109;-29
2023/04/09 00:49:03;;;;;;;;;;;;;;;29.42;23.59;101321.44;5084569;28;1099;-32
2023/04/09 00:51:29;;;;;;;;;;;;;;;29.76;23.17;101322.78;5097934;28;865;-28
2023/04/09 00:53:54;;;;;;;;;;;;;;;30.08;22.61;101317.16;5098596;28;1301;-28
2023/04/09 00:56:20;;;;;;;;;;;;;;;30.09;22.70;101326.13;5097267;28;1055;-30
2023/04/09 00:58:46;;;;;;;;;;;;;;;29.62;22.94;101316.34;5078813;28;1508;-30
2023/04/09 01:01:11;;;;;;;;;;;;;;;29.09;23.84;101317.19;5097942;28;1098;-31
2023/04/09 01:03:37;;;;;;;;;;;;;;;30.05;22.84;101310.25;5097710;28;1971;-30
2023/04/09 01:06:23;;;;;;;;;;;;;;;29.85;22.62;101312.69;5097866;28;998;-30
2023/04/09 01:08:57;;;;;;;;;;;;;;;29.93;21.99;101309.88;5067682;28;1254;-31
2023/04/09 01:11:24;;;;;;;;;;;;;;;29.93;21.81;101309.03;5079551;28;1143;-28
2023/04/09 01:14:05;;;;;;;;;;;;;;;29.81;21.96;101309.50;5079194;28;1275;-33
2023/04/09 01:16:31;;;;;;;;;;;;;;;28.14;24.04;101315.38;5079668;28;1198;-30
2023/04/09 01:18:58;;;;;;;;;;;;;;;28.52;23.84;101309.28;5079177;28;1178;-29
2023/04/09 01:21:26;;;;;;;;;;;;;;;29.64;22.37;101300.75;5045769;28;1182;-32
2023/04/09 01:23:57;;;;;;;;;;;;;;;29.62;22.37;101308.22;5089871;28;1973;-30
2023/04/09 01:26:32;;;;;;;;;;;;;;;29.62;22.29;101310.06;5078897;28;1576;-33
2023/04/09 01:28:58;;;;;;;;;;;;;;;29.52;22.40;101299.47;5097388;28;1106;-32
2023/04/09 01:31:25;;;;;;;;;;;;;;;29.39;22.62;101303.69;5079105;28;1297;-30
2023/04/09 01:33:51;;;;;;;;;;;;;;;28.07;23.94;101300.88;5079231;28;1111;-30
2023/04/09 01:36:17;;;;;;;;;;;;;;;27.98;24.30;101300.03;5097240;28;1023;-30
2023/04/09 01:38:42;;;;;;;;;;;;;;;29.41;22.58;101292.66;5096752;28;1229;-31
2023/04/09 01:41:09;;;;;;;;;;;;;;;29.55;22.43;101294.53;5079398;28;1568;-32
2023/04/09 01:43:34;;;;;;;;;;;;;;;29.76;22.10;101302.97;5078497;28;1906;-36
2023/04/09 01:46:01;;;;;;;;;;;;;;;29.51;22.43;101295.09;5062725;28;1210;-30
2023/04/09 01:48:28;;;;;;;;;;;;;;;29.48;22.25;101295.47;5078963;28;1185;-34
2023/04/09 01:50:53;;;;;;;;;;;;;;;28.48;23.25;101299.81;5096549;28;845;-29
2023/04/09 01:53:19;;;;;;;;;;;;;;;27.83;24.13;101292.69;5078717;28;1047;-30
2023/04/09 01:55:44;;;;;;;;;;;;;;;29.06;23.00;101295.88;5078861;28;1274;-30
2023/04/09 01:58:10;;;;;;;;;;;;;;;29.53;22.33;101295.75;5096434;28;1083;-30
2023/04/09 02:00:39;;;;;;;;;;;;;;;29.56;22.24;101293.50;5078748;28;1202;-33
2023/04/09 02:03:05;;;;;;;;;;;;;;;29.74;21.92;101291.47;5096628;28;1914;-32
2023/04/09 02:05:31;;;;;;;;;;;;;;;29.41;22.39;101292.66;5078222;28;1101;-29
2023/04/09 02:07:57;;;;;;;;;;;;;;;29.61;22.29;101293.00;5078310;28;1023;-29
2023/04/09 02:10:23;;;;;;;;;;;;;;;27.86;24.16;101294.22;5078407;28;1185;-30
2023/04/09 02:12:50;;;;;;;;;;;;;;;28.04;24.53;101293.09;5096514;28;1133;-30
2023/04/09 02:15:15;;;;;;;;;;;;;;;29.32;22.65;101291.91;5078512;28;1241;-30
2023/04/09 02:17:41;;;;;;;;;;;;;;;29.55;22.38;101299.09;5078369;28;1194;-28
2023/04/09 02:20:07;;;;;;;;;;;;;;;29.64;22.28;101286.34;5077984;28;1226;-28
2023/04/09 02:22:32;;;;;;;;;;;;;;;29.37;22.45;101277.78;5096600;28;1986;-28
2023/04/09 02:24:58;;;;;;;;;;;;;;;29.18;22.73;101280.84;5096676;28;1062;-33
2023/04/09 02:27:23;;;;;;;;;;;;;;;28.01;24.05;101283.47;5096414;28;1071;-29
2023/04/09 02:29:49;;;;;;;;;;;;;;;27.75;24.56;101285.44;5096631;28;1118;-29
2023/04/09 02:32:15;;;;;;;;;;;;;;;28.88;23.39;101286.16;5078215;28;1225;-29
2023/04/09 02:34:41;;;;;;;;;;;;;;;29.91;21.95;101289.41;5096365;28;1012;-30
2023/04/09 02:37:06;;;;;;;;;;;;;;;28.53;23.33;101296.59;5078454;28;1451;-28
2023/04/09 02:39:32;;;;;;;;;;;;;;;27.30;25.00;101290.44;5096246;28;874;-30
2023/04/09 02:41:57;;;;;;;;;;;;;;;28.46;23.89;101289.19;5095901;28;1993;-28
2023/04/09 02:44:25;;;;;;;;;;;;;;;29.09;22.92;101288.19;5078060;28;1026;-28
2023/04/09 02:46:51;;;;;;;;;;;;;;;29.20;22.63;101289.63;5077488;28;1683;-28
2023/04/09 02:49:17;;;;;;;;;;;;;;;29.28;22.70;101285.19;5096175;28;1015;-33
2023/04/09 02:51:43;;;;;;;;;;;;;;;29.17;22.79;101275.63;5077772;28;1157;-29
2023/04/09 02:54:09;;;;;;;;;;;;;;;29.33;22.66;101280.03;5096032;28;1045;-30
2023/04/09 02:56:34;;;;;;;;;;;;;;;28.35;23.57;101282.31;5064986;28;1142;-28
2023/04/09 02:59:00;;;;;;;;;;;;;;;27.54;24.79;101280.59;5078095;28;1358;-30
2023/04/09 03:01:25;;;;;;;;;;;;;;;28.73;23.27;101273.44;5077735;28;1119;-31
2023/04/09 03:03:51;;;;;;;;;;;;;;;29.42;22.64;101272.66;5077560;28;1902;-29
2023/04/09 03:06:17;;;;;;;;;;;;;;;29.56;22.20;101276.41;5096378;28;1373;-31
2023/04/09 03:08:43;;;;;;;;;;;;;;;29.71;21.93;101271.00;5078200;28;1115;-30
2023/04/09 03:11:08;;;;;;;;;;;;;;;29.42;22.39;101278.06;5095670;28;1078;-32
2023/04/09 03:13:34;;;;;;;;;;;;;;;29.56;22.12;101277.22;5096319;28;975;-28
2023/04/09 03:15:59;;;;;;;;;;;;;;;27.82;24.05;101279.34;5077734;28;1111;-31
2023/04/09 03:18:26;;;;;;;;;;;;;;;27.34;25.29;101269.31;5095885;28;1014;-30
2023/04/09 03:20:51;;;;;;;;;;;;;;;28.95;23.30;101281.72;5100211;28;1293;-28
2023/04/09 03:23:17;;;;;;;;;;;;;;;29.26;22.77;101277.22;5100005;28;1913;-30
2023/04/09 03:25:45;;;;;;;;;;;;;;;29.28;22.68;101279.75;5081282;28;1206;-30
2023/04/09 03:28:14;;;;;;;;;;;;;;;29.43;22.64;101282.44;5081502;28;1130;-32
2023/04/09 03:30:50;;;;;;;;;;;;;;;29.21;22.83;101285.91;5093569;28;1173;-30
2023/04/09 03:33:15;;;;;;;;;;;;;;;28.85;22.50;101289.25;5073909;28;1124;-29
2023/04/09 03:35:53;;;;;;;;;;;;;;;27.39;24.54;101288.56;5069608;28;1222;-28
2023/04/09 03:38:28;;;;;;;;;;;;;;;28.40;23.79;101287.19;5081324;28;1200;-28
2023/04/09 03:40:54;;;;;;;;;;;;;;;29.50;22.38;101285.25;5081177;28;1318;-28
2023/04/09 03:43:20;;;;;;;;;;;;;;;29.99;21.69;101291.16;5099183;28;1991;-28
2023/04/09 03:45:50;;;;;;;;;;;;;;;29.51;22.09;101287.78;5081533;28;1099;-29
2023/04/09 03:48:21;;;;;;;;;;;;;;;29.68;21.83;101280.34;5080669;28;1416;-30
2023/04/09 03:50:47;;;;;;;;;;;;;;;29.78;21.63;101282.78;5080791;28;1178;-29
2023/04/09 03:53:18;;;;;;;;;;;;;;;27.00;23.30;101281.97;5081035;28;1115;-32
2023/04/09 03:55:45;;;;;;;;;;;;;;;26.54;25.44;101291.41;5080861;28;1619;-30
2023/04/09 03:58:18;;;;;;;;;;;;;;;26.34;25.58;101290.84;5067254;28;1528;-29
2023/04/09 04:00:43;;;;;;;;;;;;;;;26.12;26.40;101285.88;5079726;28;1298;-29
2023/04/09 04:03:29;;;;;;;;;;;;;;;27.60;24.42;101298.81;5092714;28;1914;-27
2023/04/09 04:06:09;;;;;;;;;;;;;;;26.92;25.24;101299.03;5073551;28;1295;-31
2023/04/09 04:09:06;;;;;;;;;;;;;;;26.82;25.36;101296.50;5075739;28;1309;-30
2023/04/09 04:11:46;;;;;;;;;;;;;;;27.29;25.37;101304.97;5080583;28;1123;-29
2023/04/09 04:14:13;;;;;;;;;;;;;;;26.96;25.66;101300.38;5093287;28;1147;-29
2023/04/09 04:16:42;;;;;;;;;;;;;;;27.60;24.54;101293.41;5071549;28;1093;-31
2023/04/09 04:19:08;;;;;;;;;;;;;;;27.56;24.15;101294.75;5072861;28;1431;-29
2023/04/09 04:21:40;;;;;;;;;;;;;;;26.63;25.36;101301.19;5080975;28;1321;-29
2023/04/09 04:24:06;;;;;;;;;;;;;;;26.69;25.83;101296.16;5079944;28;1972;-32
2023/04/09 04:26:31;;;;;;;;;;;;;;;27.55;24.46;101298.47;5098689;28;1039;-31
2023/04/09 04:28:57;;;;;;;;;;;;;;;27.31;24.07;101299.38;5078688;28;1295;-25
2023/04/09 04:31:51;;;;;;;;;;;;;;;27.34;23.15;101294.47;5082063;28;1286;-29
2023/04/09 04:34:20;;;;;;;;;;;;;;;27.06;24.19;101294.00;5080582;28;1147;-28
2023/04/09 04:36:52;;;;;;;;;;;;;;;27.01;24.73;101300.75;5080623;28;1223;-29
2023/04/09 04:39:18;;;;;;;;;;;;;;;27.24;24.69;101302.75;5079753;28;1117;-33
2023/04/09 04:41:57;;;;;;;;;;;;;;;27.24;24.87;101301.91;5080466;28;1902;-28
2023/04/09 04:44:26;;;;;;;;;;;;;;;27.44;24.74;101305.09;5080283;28;1276;-31
2023/04/09 04:47:03;;;;;;;;;;;;;;;27.19;24.82;101298.88;5080039;28;1361;-32
2023/04/09 04:49:29;;;;;;;;;;;;;;;26.50;25.82;101308.91;5080113;28;1111;-32
2023/04/09 04:51:55;;;;;;;;;;;;;;;26.20;26.27;101297.69;5098062;28;1051;-31
2023/04/09 04:54:20;;;;;;;;;;;;;;;26.03;26.51;101309.25;5071074;28;1137;-33
2023/04/09 04:56:52;;;;;;;;;;;;;;;25.88;27.04;101308.16;5063578;28;1215;-29
2023/04/09 04:59:38;;;;;;;;;;;;;;;26.01;26.82;101310.41;5097447;28;1134;-32
2023/04/09 05:02:06;;;;;;;;;;;;;;;26.12;26.63;101312.84;5079563;28;1906;-28
2023/04/09 05:04:40;;;;;;;;;;;;;;;26.20;26.55;101306.63;5078930;28;1163;-30
2023/04/09 05:07:09;;;;;;;;;;;;;;;26.44;26.19;101312.28;5067438;28;1218;-29
2023/04/09 05:09:43;;;;;;;;;;;;;;;26.35;26.51;101309.56;5079890;28;1269;-35
2023/04/09 05:12:09;;;;;;;;;;;;;;;26.68;26.27;101306.09;5079760;28;1190;-29
2023/04/09 05:14:35;;;;;;;;;;;;;;;26.53;26.35;101319.38;5062183;28;1215;-31
2023/04/09 05:17:01;;;;;;;;;;;;;;;24.37;25.36;101306.09;5060695;28;1158;-33
2023/04/09 05:19:37;;;;;;;;;;;;;;;22.38;27.99;101316.22;5076665;28;1222;-30
2023/04/09 05:22:03;;;;;;;;;;;;;;;22.84;30.26;101307.69;5074337;28;1990;-35
2023/04/09 05:24:28;;;;;;;;;;;;;;;24.86;26.81;101312.13;5079780;28;1809;-29
2023/04/09 05:26:54;;;;;;;;;;;;;;;25.35;26.27;101314.41;5079132;28;1099;-32
2023/04/09 05:29:20;;;;;;;;;;;;;;;25.82;25.42;101320.44;5078427;28;1209;-30
2023/04/09 05:31:46;;;;;;;;;;;;;;;25.62;26.26;101319.78;5092393;28;1064;-29
2023/04/09 05:34:29;;;;;;;;;;;;;;;25.43;26.87;101321.69;5079456;28;1180;-31
2023/04/09 05:36:55;;;;;;;;;;;;;;;25.00;27.58;101322.38;5079244;28;1163;-30
2023/04/09 05:39:23;;;;;;;;;;;;;;;24.93;27.57;101324.84;5079189;28;1177;-28
2023/04/09 05:41:51;;;;;;;;;;;;;;;25.21;27.34;101326.56;5065351;28;1902;-29
2023/04/09 05:44:27;;;;;;;;;;;;;;;25.66;26.56;101326.56;5079481;28;1312;-30
2023/04/09 05:46:59;;;;;;;;;;;;;;;25.46;26.99;101328.63;5079381;28;1324;-31
2023/04/09 05:49:31;;;;;;;;;;;;;;;25.36;27.40;101332.22;5079185;28;1452;-29
2023/04/09 05:51:57;;;;;;;;;;;;;;;25.89;26.43;101332.25;5078901;28;1201;-30
2023/04/09 05:54:26;;;;;;;;;;;;;;;25.96;26.75;101337.03;5064051;28;1172;-31
2023/04/09 05:56:52;;;;;;;;;;;;;;;25.58;27.36;101330.03;5075248;28;1043;-28
2023/04/09 05:59:17;;;;;;;;;;;;;;;25.44;27.39;101328.78;5073768;28;1377;-28
2023/04/09 06:01:43;;;;;;;;;;;;;;;25.65;27.15;101325.75;5078648;28;1131;-29
2023/04/09 06:04:09;;;;;;;;;;;;;;;26.00;27.05;101325.75;5076721;28;1925;-33
2023/04/09 06:06:36;;;;;;;;;;;;;;;25.94;27.19;101322.84;5085233;28;1031;-28
2023/04/09 06:09:01;;;;;;;;;;;;;;;25.63;27.64;101333.13;5085686;28;1105;-30
2023/04/09 06:11:27;;;;;;;;;;;;;;;25.74;27.23;101328.47;5089243;28;1266;-28
2023/04/09 06:13:52;;;;;;;;;;;;;;;25.07;28.39;101328.81;5078283;28;2230;-31
2023/04/09 06:16:18;;;;;;;;;;;;;;;25.53;27.88;101333.22;5093262;28;1182;-33
2023/04/09 06:18:45;;;;;;;;;;;;;;;25.73;27.21;101334.84;5085879;28;1098;-28
2023/04/09 06:21:12;;;;;;;;;;;;;;;25.69;27.26;101345.13;5093685;28;1132;-27
2023/04/09 06:23:38;;;;;;;;;;;;;;;25.56;27.78;101345.50;5086358;28;1981;-31
2023/04/09 06:26:04;;;;;;;;;;;;;;;26.08;26.72;101351.91;5096642;28;1209;-30
2023/04/09 06:28:30;;;;;;;;;;;;;;;26.34;26.48;101359.09;5096129;28;1142;-28
2023/04/09 06:30:56;;;;;;;;;;;;;;;26.19;26.53;101353.47;5096265;28;1165;-29
2023/04/09 06:33:21;;;;;;;;;;;;;;;26.25;26.86;101360.06;5096618;28;1178;-28
2023/04/09 06:35:47;;;;;;;;;;;;;;;26.11;26.97;101359.66;5094540;28;1209;-34
2023/04/09 06:38:13;;;;;;;;;;;;;;;26.09;26.98;101364.38;5090360;28;1317;-32
2023/04/09 06:40:38;;;;;;;;;;;;;;;26.20;26.71;101360.56;5081032;28;1266;-28
2023/04/09 06:43:04;;;;;;;;;;;;;;;26.10;26.94;101359.81;5084420;28;1914;-30
2023/04/09 06:45:40;;;;;;;;;;;;;;;26.07;26.96;101355.63;5064826;28;1204;-28
2023/04/09 06:48:05;;;;;;;;;;;;;;;26.12;26.49;101358.69;5096514;28;1034;-32
2023/04/09 06:50:31;;;;;;;;;;;;;;;26.00;26.87;101360.81;5096145;28;1161;-30
2023/04/09 06:52:58;;;;;;;;;;;;;;;25.80;27.14;101358.34;5095710;28;1253;-29
2023/04/09 06:55:25;;;;;;;;;;;;;;;25.88;26.56;101365.63;5086127;28;1047;-29
2023/04/09 06:57:51;;;;;;;;;;;;;;;25.85;27.04;101359.69;5100434;28;1098;-27
2023/04/09 07:00:16;;;;;;;;;;;;;;;26.35;26.48;101352.72;5097362;28;1086;-30
2023/04/09 07:02:42;;;;;;;;;;;;;;;26.34;26.37;101347.50;5090292;28;2048;-29
2023/04/09 07:05:08;;;;;;;;;;;;;;;26.25;26.72;101347.44;5096994;28;1482;-31
2023/04/09 07:07:33;;;;;;;;;;;;;;;26.25;26.57;101343.88;5090059;28;1142;-27
2023/04/09 07:10:00;;;;;;;;;;;;;;;26.25;26.58;101343.88;5097036;28;1241;-32
2023/04/09 07:12:29;;;;;;;;;;;;;;;26.43;26.55;101346.50;5079818;28;1154;-31
2023/04/09 07:14:58;;;;;;;;;;;;;;;26.46;26.56;101351.56;5097967;28;1154;-30
2023/04/09 07:17:24;;;;;;;;;;;;;;;25.79;26.32;101254.22;5099929;28;1269;-28
2023/04/09 07:19:50;;;;;;;;;;;;;;;26.43;26.39;101348.34;5100040;28;1172;-28
2023/04/09 07:22:16;;;;;;;;;;;;;;;26.60;26.44;101344.69;5099627;28;1922;-29
2023/04/09 07:24:41;;;;;;;;;;;;;;;26.46;26.35;101348.88;5100277;28;1260;-28
2023/04/09 07:27:07;;;;;;;;;;;;;;;26.52;26.52;101347.38;5099391;28;1015;-29
2023/04/09 07:29:33;;;;;;;;;;;;;;;26.60;26.32;101341.16;5099277;28;1121;-29
2023/04/09 07:32:00;;;;;;;;;;;;;;;26.33;26.77;101351.19;5100167;28;1245;-27
2023/04/09 07:34:26;;;;;;;;;;;;;;;26.69;26.37;101348.28;5099313;28;1062;-27
2023/04/09 07:36:52;;;;;;;;;;;;;;;26.52;26.25;101356.31;5092636;28;1070;-28
2023/04/09 07:39:18;;;;;;;;;;;;;;;26.36;26.51;101346.31;5092921;28;996;-29
2023/04/09 07:41:43;;;;;;;;;;;;;;;26.10;26.92;101354.44;5092537;28;1109;-31
2023/04/09 07:44:09;;;;;;;;;;;;;;;26.05;26.89;101346.84;5082297;28;1973;-27
2023/04/09 07:46:34;;;;;;;;;;;;;;;26.30;26.70;101349.63;5099752;28;1213;-32
2023/04/09 07:49:00;;;;;;;;;;;;;;;26.37;26.69;101341.78;5099216;28;1086;-27
2023/04/09 07:51:26;;;;;;;;;;;;;;;26.26;26.57;101342.84;5099208;28;1117;-28
2023/04/09 07:53:52;;;;;;;;;;;;;;;26.26;26.60;101349.09;5091368;28;1054;-28
2023/04/09 07:56:17;;;;;;;;;;;;;;;26.32;26.73;101352.16;5088880;28;1074;-27
2023/04/09 07:58:43;;;;;;;;;;;;;;;26.41;26.54;101349.38;5085316;28;1148;-30
2023/04/09 08:01:09;;;;;;;;;;;;;;;26.36;26.56;101351.69;5098891;28;1078;-28
2023/04/09 08:03:35;;;;;;;;;;;;;;;26.50;26.54;101350.25;5099083;28;1964;-27
2023/04/09 08:06:01;;;;;;;;;;;;;;;26.32;26.21;101347.63;5098539;28;900;-30
2023/04/09 08:08:26;;;;;;;;;;;;;;;26.42;26.26;101347.53;5098718;28;1121;-30
2023/04/09 08:10:52;;;;;;;;;;;;;;;26.45;26.22;101349.88;5098798;28;1329;-31
2023/04/09 08:13:17;;;;;;;;;;;;;;;26.57;26.33;101344.19;5098861;28;1118;-30
2023/04/09 08:15:43;;;;;;;;;;;;;;;26.67;25.79;101347.59;5099263;28;1082;-28
2023/04/09 08:18:09;;;;;;;;;;;;;;;26.62;25.90;101350.78;5094053;28;1174;-29
2023/04/09 08:20:34;;;;;;;;;;;;;;;26.27;26.47;101344.56;5078484;28;1178;-29
2023/04/09 08:23:00;;;;;;;;;;;;;;;26.61;25.97;101351.78;5097270;28;1905;-30
2023/04/09 08:25:26;;;;;;;;;;;;;;;26.19;26.61;101349.94;5098473;28;1015;-27
2023/04/09 08:27:52;;;;;;;;;;;;;;;26.20;26.31;101349.75;5098685;28;1096;-28
2023/04/09 08:30:17;;;;;;;;;;;;;;;26.16;26.64;101353.78;5087172;28;891;-29
2023/04/09 08:32:43;;;;;;;;;;;;;;;26.14;26.35;101348.53;5096383;28;1059;-29
2023/04/09 08:35:09;;;;;;;;;;;;;;;26.09;26.56;101348.19;5098975;28;1126;-27
2023/04/09 08:37:34;;;;;;;;;;;;;;;26.09;26.77;101350.88;5098536;28;1074;-30
2023/04/09 08:40:00;;;;;;;;;;;;;;;26.09;26.58;101352.75;5098274;28;1113;-28
2023/04/09 08:42:26;;;;;;;;;;;;;;;26.21;26.56;101356.00;5093341;28;1905;-29
2023/04/09 08:44:51;;;;;;;;;;;;;;;26.27;26.94;101352.66;5090327;28;1067;-27
2023/04/09 08:47:17;;;;;;;;;;;;;;;26.35;26.54;101350.03;5088963;28;1054;-30
2023/04/09 08:49:42;;;;;;;;;;;;;;;26.35;26.93;101346.47;5080133;28;1098;-27
2023/04/09 08:52:08;;;;;;;;;;;;;;;26.41;26.97;101348.50;5098278;28;1014;-30
2023/04/09 08:54:34;;;;;;;;;;;;;;;26.51;26.49;101348.38;5079752;28;944;-31
2023/04/09 08:57:03;;;;;;;;;;;;;;;26.44;26.69;101345.50;5098339;28;1224;-29
2023/04/09 08:59:28;;;;;;;;;;;;;;;26.27;26.91;101344.56;5097671;28;1217;-32
2023/04/09 09:02:06;;;;;;;;;;;;;;;26.59;26.59;101342.16;5087858;28;1273;-30
2023/04/09 09:04:42;;;;;;;;;;;;;;;26.50;26.97;101341.28;5083376;28;1111;-27
2023/04/09 09:07:08;;;;;;;;;;;;;;;26.49;27.12;101345.00;5088309;28;988;-30
2023/04/09 09:09:33;;;;;;;;;;;;;;;26.55;27.19;101341.66;5077596;28;1273;-28
2023/04/09 09:12:00;;;;;;;;;;;;;;;26.51;26.94;101335.72;5067799;28;1351;-28
2023/04/09 09:14:26;;;;;;;;;;;;;;;26.59;27.60;101334.91;5097101;28;1097;-27
2023/04/09 09:16:54;;;;;;;;;;;;;;;26.47;27.66;101336.22;5096721;28;1113;-27
2023/04/09 09:19:23;;;;;;;;;;;;;;;26.58;27.53;101340.47;5082668;28;1000;-29
2023/04/09 09:21:56;;;;;;;;;;;;;;;26.25;28.05;101339.34;5077299;28;1147;-30
2023/04/09 09:24:22;;;;;;;;;;;;;;;26.31;27.33;101343.22;5085059;28;1071;-28
2023/04/09 09:26:47;;;;;;;;;;;;;;;26.12;27.42;101337.09;5077427;28;1202;-28
2023/04/09 09:29:13;;;;;;;;;;;;;;;26.10;27.85;101332.88;5059775;28;1285;-30
2023/04/09 09:31:46;;;;;;;;;;;;;;;26.02;27.76;101334.53;5081614;28;1202;-28
2023/04/09 09:34:12;;;;;;;;;;;;;;;26.25;27.70;101341.19;5077009;28;1238;-28
2023/04/09 09:36:37;;;;;;;;;;;;;;;26.09;27.89;101337.41;5072383;28;1191;-30
2023/04/09 09:39:08;;;;;;;;;;;;;;;26.17;27.84;101329.34;5088261;28;1019;-29
2023/04/09 09:41:34;;;;;;;;;;;;;;;26.11;27.74;101337.25;5096775;28;1038;-29
2023/04/09 09:43:59;;;;;;;;;;;;;;;26.00;28.14;101333.00;5086110;28;1971;-33
2023/04/09 09:46:25;;;;;;;;;;;;;;;26.12;27.97;101338.94;5075648;28;1094;-28
2023/04/09 09:48:51;;;;;;;;;;;;;;;26.03;28.12;101330.81;5088421;28;1129;-30
2023/04/09 09:51:17;;;;;;;;;;;;;;;25.83;28.30;101319.44;5096866;28;1126;-28
2023/04/09 09:53:43;;;;;;;;;;;;;;;25.82;28.29;101317.75;5096981;28;1146;-30
2023/04/09 09:56:13;;;;;;;;;;;;;;;25.90;28.22;101319.63;5096833;28;1121;-30
2023/04/09 09:58:49;;;;;;;;;;;;;;;25.61;28.66;101318.13;5096773;28;1143;-28
2023/04/09 10:01:15;;;;;;;;;;;;;;;25.85;28.17;101314.72;5097237;28;1031;-30
2023/04/09 10:03:41;;;;;;;;;;;;;;;25.58;28.61;101310.31;5096935;28;1913;-28
2023/04/09 10:06:07;;;;;;;;;;;;;;;25.66;28.63;101311.25;5094626;28;1134;-28
2023/04/09 10:08:36;;;;;;;;;;;;;;;25.75;27.91;101314.00;5086648;28;1122;-30
2023/04/09 10:11:03;;;;;;;;;;;;;;;25.49;28.81;101306.75;5065755;28;1114;-27
2023/04/09 10:13:31;;;;;;;;;;;;;;;25.34;28.98;101304.59;5083536;28;1146;-28
2023/04/09 10:15:57;;;;;;;;;;;;;;;25.51;29.00;101308.28;5078969;28;1258;-29
2023/04/09 10:18:23;;;;;;;;;;;;;;;25.55;28.91;101308.81;5092656;28;1153;-28
2023/04/09 10:20:50;;;;;;;;;;;;;;;25.54;28.54;101313.34;5065836;28;1051;-28
2023/04/09 10:23:33;;;;;;;;;;;;;;;25.57;28.37;101309.50;5079020;28;1902;-28
2023/04/09 10:25:58;;;;;;;;;;;;;;;25.56;28.48;101307.78;5078519;28;1111;-28
2023/04/09 10:28:24;;;;;;;;;;;;;;;25.42;28.48;101307.34;5101660;28;987;-30
2023/04/09 10:30:49;;;;;;;;;;;;;;;25.68;28.28;101303.00;5095686;28;945;-28
2023/04/09 10:33:16;;;;;;;;;;;;;;;25.63;28.49;101302.63;5065877;28;1118;-28
2023/04/09 10:35:42;;;;;;;;;;;;;;;25.84;28.03;101304.13;5096437;28;1054;-32
2023/04/09 10:38:08;;;;;;;;;;;;;;;25.65;28.65;101303.34;5097021;28;1038;-27
2023/04/09 10:40:35;;;;;;;;;;;;;;;25.60;28.31;101303.78;5096949;28;1167;-28
2023/04/09 10:43:01;;;;;;;;;;;;;;;25.38;28.93;101295.22;5070871;28;1901;-29
2023/04/09 10:45:27;;;;;;;;;;;;;;;25.38;28.50;101289.84;5076108;28;1133;-28
2023/04/09 10:47:53;;;;;;;;;;;;;;;25.39;28.66;101283.44;5077239;28;1207;-28
2023/04/09 10:50:24;;;;;;;;;;;;;;;25.37;28.92;101287.31;5096715;28;1225;-28
2023/04/09 10:52:53;;;;;;;;;;;;;;;25.35;28.89;101284.78;5096358;28;1112;-28
2023/04/09 10:55:33;;;;;;;;;;;;;;;25.14;29.09;101280.56;5094227;28;1529;-31
2023/04/09 10:57:59;;;;;;;;;;;;;;;25.45;28.67;101276.59;5076362;28;1170;-28
2023/04/09 11:00:24;;;;;;;;;;;;;;;25.68;27.99;101273.38;5093782;28;1118;-29
2023/04/09 11:03:03;;;;;;;;;;;;;;;25.65;28.00;101271.84;5085952;28;1967;-29
2023/04/09 11:05:37;;;;;;;;;;;;;;;25.66;28.03;101267.28;5081898;28;1162;-27
2023/04/09 11:08:09;;;;;;;;;;;;;;;25.59;28.25;101269.75;5082672;28;856;-30
2023/04/09 11:10:35;;;;;;;;;;;;;;;25.68;28.33;101276.91;5083898;28;1129;-33
2023/04/09 11:13:01;;;;;;;;;;;;;;;25.71;28.51;101261.44;5096124;28;1154;-27
2023/04/09 11:15:27;;;;;;;;;;;;;;;25.84;28.28;101258.28;5096382;28;1140;-29
2023/04/09 11:17:52;;;;;;;;;;;;;;;25.87;27.99;101264.22;5096122;28;1090;-27
2023/04/09 11:20:21;;;;;;;;;;;;;;;25.87;28.22;101256.13;5086755;28;903;-27
2023/04/09 11:22:48;;;;;;;;;;;;;;;25.73;28.73;101249.50;5092485;28;1976;-30
2023/04/09 11:25:23;;;;;;;;;;;;;;;25.50;28.83;101246.47;5095984;28;1097;-30
2023/04/09 11:27:49;;;;;;;;;;;;;;;25.98;28.09;101251.44;5095976;28;1093;-30
2023/04/09 11:30:15;;;;;;;;;;;;;;;25.87;28.21;101244.50;5096060;28;1089;-29
2023/04/09 11:32:41;;;;;;;;;;;;;;;25.83;28.03;101245.81;5096303;28;1161;-28
2023/04/09 11:35:16;;;;;;;;;;;;;;;25.90;28.05;101238.78;5095980;28;1125;-27
2023/04/09 11:37:42;;;;;;;;;;;;;;;25.94;28.18;101236.59;5076351;28;1453;-30
2023/04/09 11:40:18;;;;;;;;;;;;;;;25.87;27.98;101231.03;5077422;28;1138;-28
2023/04/09 11:42:44;;;;;;;;;;;;;;;25.64;27.94;101227.03;5086763;28;1910;-28
2023/04/09 11:45:10;;;;;;;;;;;;;;;25.84;27.91;101232.16;5085891;28;1046;-30
2023/04/09 11:47:36;;;;;;;;;;;;;;;25.84;27.87;101226.78;5078392;28;1094;-28
2023/04/09 11:50:01;;;;;;;;;;;;;;;25.67;28.20;101221.31;5075877;28;1083;-28
2023/04/09 11:52:29;;;;;;;;;;;;;;;25.37;28.66;101212.75;5081577;28;1130;-30
2023/04/09 11:54:58;;;;;;;;;;;;;;;25.36;28.91;101218.31;5098474;28;1209;-31
2023/04/09 11:57:24;;;;;;;;;;;;;;;25.20;29.11;101219.88;5087988;28;1058;-35
2023/04/09 11:59:50;;;;;;;;;;;;;;;25.32;28.82;101215.06;5099613;28;1115;-27
2023/04/09 12:02:16;;;;;;;;;;;;;;;25.35;28.65;101208.50;5081270;28;1902;-30
2023/04/09 12:04:49;;;;;;;;;;;;;;;25.33;28.81;101208.69;5099817;28;1087;-28
2023/04/09 12:07:16;;;;;;;;;;;;;;;25.30;28.58;101204.47;5099368;28;1225;-30
2023/04/09 12:09:47;;;;;;;;;;;;;;;25.22;28.48;101201.72;5085988;28;1054;-27
2023/04/09 12:12:17;;;;;;;;;;;;;;;25.39;28.56;101196.44;5099395;28;1058;-27
2023/04/09 12:14:44;;;;;;;;;;;;;;;25.55;28.13;101201.06;5096291;28;1336;-30
2023/04/09 12:17:10;;;;;;;;;;;;;;;25.41;28.38;101206.03;5088930;28;1039;-29
2023/04/09 12:19:35;;;;;;;;;;;;;;;25.48;28.36;101198.16;5095807;28;1137;-29
2023/04/09 12:22:01;;;;;;;;;;;;;;;25.31;28.81;101197.22;5081255;28;1189;-28
2023/04/09 12:24:27;;;;;;;;;;;;;;;25.35;28.70;101197.75;5090183;28;1913;-29
2023/04/09 12:26:53;;;;;;;;;;;;;;;25.50;28.60;101195.28;5094560;28;1087;-27
2023/04/09 12:29:19;;;;;;;;;;;;;;;25.48;28.04;101203.53;5099010;28;1098;-27
2023/04/09 12:31:45;;;;;;;;;;;;;;;25.26;28.47;101196.84;5092722;28;1135;-28
2023/04/09 12:34:10;;;;;;;;;;;;;;;25.47;28.27;101199.16;5092474;28;900;-27
2023/04/09 12:36:40;;;;;;;;;;;;;;;25.56;28.06;101197.34;5099046;28;1089;-28
2023/04/09 12:39:06;;;;;;;;;;;;;;;25.55;28.32;101199.22;5098621;28;1073;-27
2023/04/09 12:41:31;;;;;;;;;;;;;;;25.57;28.18;101196.34;5098492;28;1039;-27
2023/04/09 12:43:57;;;;;;;;;;;;;;;25.22;27.94;101201.72;5094764;28;1910;-29
2023/04/09 12:46:22;;;;;;;;;;;;;;;24.76;26.44;101205.41;5078758;28;1185;-27
2023/04/09 12:48:48;;;;;;;;;;;;;;;24.88;27.73;101199.78;5079092;28;1147;-29